createdAt,value
2022-11-17T00:02:22.453Z,2.30
2022-11-17T00:04:49.608Z,2.20
2022-11-17T00:07:16.264Z,2.30
2022-11-17T00:09:42.970Z,2.40
2022-11-17T00:12:32.632Z,2.70
2022-11-17T00:14:59.951Z,2.23
2022-11-17T00:17:27.049Z,2.17
2022-11-17T00:20:12.778Z,2.53
2022-11-17T00:22:39.422Z,2.10
2022-11-17T00:25:06.257Z,2.17
2022-11-17T00:27:32.926Z,2.10
2022-11-17T00:29:59.581Z,2.30
2022-11-17T00:32:45.436Z,2.10
2022-11-17T00:35:12.506Z,2.10
2022-11-17T00:38:03.430Z,1.80
2022-11-17T00:40:30.620Z,2.20
2022-11-17T00:42:57.747Z,2.10
2022-11-17T00:45:24.859Z,2.40
2022-11-17T00:47:51.485Z,2.00
2022-11-17T00:50:18.207Z,1.90
2022-11-17T00:52:45.272Z,2.13
2022-11-17T00:55:12.395Z,1.90
2022-11-17T00:57:39.498Z,2.73
2022-11-17T01:00:06.911Z,1.63
2022-11-17T01:02:34.009Z,1.80
2022-11-17T01:05:00.665Z,2.00
2022-11-17T01:07:27.843Z,1.77
2022-11-17T01:09:54.573Z,1.90
2022-11-17T01:12:21.698Z,2.23
2022-11-17T01:14:48.788Z,2.10
2022-11-17T01:17:15.850Z,2.10
2022-11-17T01:19:42.557Z,1.93
2022-11-17T01:22:09.229Z,2.20
2022-11-17T01:24:36.269Z,2.00
2022-11-17T01:27:02.937Z,2.17
2022-11-17T01:29:29.580Z,2.17
2022-11-17T01:31:56.659Z,2.10
2022-11-17T01:34:23.295Z,1.90
2022-11-17T01:37:19.230Z,1.93
2022-11-17T01:39:46.363Z,1.90
2022-11-17T01:42:20.192Z,2.63
2022-11-17T01:44:50.121Z,1.90
2022-11-17T01:47:22.690Z,2.10
2022-11-17T01:49:54.337Z,2.10
2022-11-17T01:52:21.426Z,2.03
2022-11-17T01:54:48.701Z,2.23
2022-11-17T01:57:23.422Z,2.10
2022-11-17T01:59:56.039Z,2.03
2022-11-17T02:02:23.302Z,2.20
2022-11-17T02:04:57.814Z,2.40
2022-11-17T02:07:31.146Z,2.00
2022-11-17T02:10:01.397Z,2.30
2022-11-17T02:12:30.748Z,1.90
2022-11-17T02:14:57.807Z,2.07
2022-11-17T02:17:30.412Z,1.80
2022-11-17T02:20:15.080Z,1.80
2022-11-17T02:23:03.447Z,2.47
2022-11-17T02:25:56.752Z,2.10
2022-11-17T02:28:43.981Z,1.80
2022-11-17T02:31:13.576Z,2.23
2022-11-17T02:33:46.482Z,2.13
2022-11-17T02:36:13.496Z,2.20
2022-11-17T02:39:02.729Z,2.50
2022-11-17T02:41:52.217Z,2.40
2022-11-17T02:44:52.102Z,1.87
2022-11-17T02:47:29.311Z,2.20
2022-11-17T02:50:10.338Z,2.27
2022-11-17T02:52:37.362Z,2.10
2022-11-17T02:55:07.058Z,2.20
2022-11-17T02:57:35.604Z,2.27
2022-11-17T03:00:12.195Z,2.17
2022-11-17T03:02:58.405Z,2.20
2022-11-17T03:05:37.303Z,2.10
2022-11-17T03:08:04.378Z,2.20
2022-11-17T03:10:52.550Z,2.30
2022-11-17T03:13:42.899Z,2.03
2022-11-17T03:16:44.817Z,1.90
2022-11-17T03:19:34.544Z,2.00
2022-11-17T03:22:27.949Z,1.73
2022-11-17T03:24:59.257Z,1.80
2022-11-17T03:27:30.766Z,1.90
2022-11-17T03:30:02.248Z,2.00
2022-11-17T03:32:33.885Z,1.87
2022-11-17T03:35:25.771Z,1.80
2022-11-17T03:37:56.324Z,2.40
2022-11-17T03:40:26.942Z,1.53
2022-11-17T03:42:57.401Z,1.50
2022-11-17T03:45:30.097Z,1.63
2022-11-17T03:48:08.380Z,1.53
2022-11-17T03:53:04.945Z,1.40
2022-11-17T03:55:49.955Z,1.30
2022-11-17T03:58:19.455Z,1.60
2022-11-17T04:00:50.886Z,1.50
2022-11-17T04:03:18.030Z,1.60
2022-11-17T04:05:45.256Z,1.37
2022-11-17T04:08:12.335Z,1.50
2022-11-17T04:10:59.413Z,1.40
2022-11-17T04:13:44.748Z,1.30
2022-11-17T04:16:11.481Z,1.40
2022-11-17T04:18:38.633Z,1.40
2022-11-17T04:21:06.037Z,1.50
2022-11-17T04:23:33.068Z,1.60
2022-11-17T04:26:18.614Z,1.37
2022-11-17T04:28:48.618Z,1.93
2022-11-17T04:31:15.676Z,1.67
2022-11-17T04:33:52.225Z,1.60
2022-11-17T04:36:21.544Z,1.63
2022-11-17T04:38:53.914Z,1.40
2022-11-17T04:41:40.870Z,1.67
2022-11-17T04:44:09.518Z,1.60
2022-11-17T04:46:38.404Z,1.70
2022-11-17T04:49:05.779Z,1.70
2022-11-17T04:51:33.489Z,1.50
2022-11-17T04:54:00.609Z,1.73
2022-11-17T04:56:29.280Z,1.60
2022-11-17T04:58:56.970Z,1.70
2022-11-17T05:01:24.824Z,1.70
2022-11-17T05:03:51.966Z,1.73
2022-11-17T05:06:26.092Z,1.70
2022-11-17T05:08:57.570Z,1.70
2022-11-17T05:11:45.390Z,1.60
2022-11-17T05:14:13.723Z,1.60
2022-11-17T05:16:58.902Z,1.60
2022-11-17T05:19:28.036Z,2.03
2022-11-17T05:21:54.965Z,1.60
2022-11-17T05:24:22.587Z,1.50
2022-11-17T05:26:50.242Z,1.53
2022-11-17T05:29:19.856Z,1.80
2022-11-17T05:31:46.953Z,1.83
2022-11-17T05:34:15.834Z,1.63
2022-11-17T05:36:42.926Z,1.50
2022-11-17T05:39:10.152Z,1.73
2022-11-17T05:41:37.310Z,1.67
2022-11-17T05:44:04.913Z,1.87
2022-11-17T05:46:31.579Z,1.80
2022-11-17T05:48:58.688Z,1.83
2022-11-17T05:51:25.433Z,2.13
2022-11-17T05:53:52.213Z,1.80
2022-11-17T05:56:45.493Z,1.93
2022-11-17T05:59:20.111Z,2.00
2022-11-17T06:02:02.165Z,2.30
2022-11-17T06:04:29.193Z,2.23
2022-11-17T06:06:59.432Z,2.50
2022-11-17T06:09:29.640Z,2.00
2022-11-17T06:11:59.772Z,2.10
2022-11-17T06:14:30.887Z,1.73
2022-11-17T06:17:02.302Z,1.93
2022-11-17T06:19:35.240Z,2.47
2022-11-17T06:22:12.172Z,2.20
2022-11-17T06:24:42.755Z,2.20
2022-11-17T06:27:11.948Z,2.10
2022-11-17T06:29:44.053Z,2.40
2022-11-17T06:32:18.627Z,2.20
2022-11-17T06:34:54.936Z,2.40
2022-11-17T06:37:23.553Z,2.03
2022-11-17T06:39:50.596Z,2.23
2022-11-17T06:42:17.228Z,2.23
2022-11-17T06:44:43.940Z,2.20
2022-11-17T06:47:11.023Z,2.60
2022-11-17T06:49:38.101Z,2.30
2022-11-17T06:52:05.179Z,1.90
2022-11-17T06:54:31.840Z,2.40
2022-11-17T06:56:58.744Z,2.10
2022-11-17T06:59:25.588Z,1.90
2022-11-17T07:01:52.792Z,2.20
2022-11-17T07:04:19.927Z,2.43
2022-11-17T07:06:46.706Z,2.20
2022-11-17T07:09:13.866Z,2.20
2022-11-17T07:11:40.604Z,2.10
2022-11-17T07:14:07.784Z,1.87
2022-11-17T07:16:34.951Z,2.07
2022-11-17T07:19:03.795Z,1.90
2022-11-17T07:21:31.179Z,2.07
2022-11-17T07:23:58.456Z,1.83
2022-11-17T07:26:25.580Z,1.63
2022-11-17T07:28:52.815Z,1.80
2022-11-17T07:31:19.609Z,1.87
2022-11-17T07:33:46.402Z,1.90
2022-11-17T07:36:17.056Z,1.70
2022-11-17T07:38:44.183Z,1.73
2022-11-17T07:41:13.924Z,1.90
2022-11-17T07:43:40.738Z,1.50
2022-11-17T07:46:10.653Z,1.60
2022-11-17T07:48:38.081Z,1.67
2022-11-17T07:51:05.786Z,1.30
2022-11-17T07:53:35.046Z,1.30
2022-11-17T07:56:06.588Z,1.10
2022-11-17T07:58:34.475Z,1.03
2022-11-17T08:01:14.683Z,1.23
2022-11-17T08:03:42.222Z,1.20
2022-11-17T08:06:09.989Z,1.50
2022-11-17T08:08:38.316Z,1.27
2022-11-17T08:11:10.472Z,1.20
2022-11-17T08:13:38.368Z,1.40
2022-11-17T08:16:06.459Z,1.20
2022-11-17T08:18:34.137Z,1.40
2022-11-17T08:21:09.553Z,1.43
2022-11-17T08:23:37.450Z,1.50
2022-11-17T08:26:06.126Z,1.20
2022-11-17T08:28:34.487Z,1.40
2022-11-17T08:31:03.110Z,1.23
2022-11-17T08:33:30.267Z,1.30
2022-11-17T08:35:58.541Z,1.30
2022-11-17T08:38:29.032Z,1.20
2022-11-17T08:41:04.480Z,1.43
2022-11-17T08:43:31.640Z,2.03
2022-11-17T08:45:58.806Z,8.33
2022-11-17T08:48:25.821Z,6.37
2022-11-17T08:50:52.681Z,3.20
2022-11-17T08:53:21.519Z,4.40
2022-11-17T08:55:48.756Z,4.47
2022-11-17T08:58:15.943Z,5.40
2022-11-17T09:00:46.600Z,4.53
2022-11-17T09:03:13.812Z,4.17
2022-11-17T09:05:44.834Z,3.50
2022-11-17T09:08:43.944Z,2.40
2022-11-17T09:11:04.922Z,1.80
2022-11-17T09:13:31.757Z,1.90
2022-11-17T09:16:04.372Z,3.13
2022-11-17T09:18:31.352Z,1.93
2022-11-17T09:21:06.279Z,2.40
2022-11-17T09:23:33.754Z,1.63
2022-11-17T09:26:06.375Z,1.60
2022-11-17T09:28:33.845Z,1.40
2022-11-17T09:31:13.585Z,1.20
2022-11-17T09:33:40.957Z,1.40
2022-11-17T09:36:08.030Z,1.30
2022-11-17T09:38:39.211Z,1.37
2022-11-17T09:41:26.479Z,1.30
2022-11-17T09:44:08.502Z,1.40
2022-11-17T09:46:52.211Z,1.53
2022-11-17T09:49:30.842Z,1.40
2022-11-17T09:52:03.236Z,1.70
2022-11-17T09:54:45.580Z,1.60
2022-11-17T09:57:39.897Z,1.70
2022-11-17T10:00:34.687Z,1.60
2022-11-17T10:03:02.143Z,1.40
2022-11-17T10:05:32.855Z,1.60
2022-11-17T10:08:07.340Z,1.60
2022-11-17T10:10:42.253Z,1.40
2022-11-17T10:13:25.194Z,1.30
2022-11-17T10:15:58.548Z,1.40
2022-11-17T10:18:27.462Z,1.10
2022-11-17T10:20:54.200Z,1.10
2022-11-17T10:23:22.648Z,1.23
2022-11-17T10:25:57.065Z,1.43
2022-11-17T10:28:30.111Z,1.27
2022-11-17T10:31:02.908Z,1.40
2022-11-17T10:33:34.513Z,1.27
2022-11-17T10:36:03.058Z,1.30
2022-11-17T10:38:32.912Z,1.37
2022-11-17T10:41:01.730Z,1.40
2022-11-17T10:43:37.136Z,1.23
2022-11-17T10:46:16.599Z,1.53
2022-11-17T10:49:01.317Z,1.80
2022-11-17T10:51:32.522Z,1.63
2022-11-17T10:54:04.926Z,2.40
2022-11-17T10:56:39.388Z,4.23
2022-11-17T10:59:13.903Z,3.00
2022-11-17T11:01:43.454Z,1.53
2022-11-17T11:04:28.643Z,1.70
2022-11-17T11:07:19.597Z,1.70
2022-11-17T11:09:56.041Z,1.40
2022-11-17T11:12:39.848Z,1.40
2022-11-17T11:15:13.941Z,1.20
2022-11-17T11:17:40.715Z,1.20
2022-11-17T11:20:14.822Z,1.20
2022-11-17T11:22:55.161Z,1.03
2022-11-17T11:25:43.610Z,1.20
2022-11-17T11:28:28.287Z,1.30
2022-11-17T11:31:06.251Z,1.20
2022-11-17T11:33:37.042Z,1.17
2022-11-17T11:36:24.766Z,1.20
2022-11-17T11:39:17.284Z,1.27
2022-11-17T11:42:07.921Z,1.10
2022-11-17T11:44:56.863Z,1.50
2022-11-17T11:47:39.592Z,1.70
2022-11-17T11:50:19.399Z,1.50
2022-11-17T11:52:51.300Z,1.30
2022-11-17T11:55:31.943Z,1.67
2022-11-17T11:58:07.041Z,1.60
2022-11-17T12:00:34.479Z,1.40
2022-11-17T12:03:13.645Z,1.47
2022-11-17T12:05:49.587Z,2.20
2022-11-17T12:08:29.293Z,0.97
2022-11-17T12:11:23.485Z,1.30
2022-11-17T12:13:54.171Z,1.20
2022-11-17T12:16:33.678Z,1.20
2022-11-17T12:19:00.932Z,1.20
2022-11-17T12:21:28.324Z,1.40
2022-11-17T12:24:15.874Z,1.23
2022-11-17T12:26:43.013Z,1.30
2022-11-17T12:29:21.597Z,1.10
2022-11-17T12:31:50.484Z,1.10
2022-11-17T12:34:26.442Z,1.40
2022-11-17T12:37:14.817Z,1.23
2022-11-17T12:40:30.029Z,1.63
2022-11-17T12:43:15.348Z,1.40
2022-11-17T12:45:54.297Z,1.33
2022-11-17T12:48:34.491Z,1.27
2022-11-17T12:51:11.392Z,1.50
2022-11-17T12:54:20.903Z,1.53
2022-11-17T12:56:56.443Z,1.33
2022-11-17T12:59:43.787Z,1.30
2022-11-17T13:02:23.908Z,1.30
2022-11-17T13:04:59.843Z,1.30
2022-11-17T13:07:27.416Z,1.23
2022-11-17T13:09:59.304Z,1.30
2022-11-17T13:12:30.419Z,1.20
2022-11-17T13:14:58.509Z,1.27
2022-11-17T13:17:33.767Z,1.23
2022-11-17T13:20:17.103Z,1.20
2022-11-17T13:22:44.181Z,1.20
2022-11-17T13:25:23.712Z,1.13
2022-11-17T13:27:56.001Z,1.30
2022-11-17T13:30:25.676Z,1.20
2022-11-17T13:32:52.958Z,4.50
2022-11-17T13:35:25.079Z,1.50
2022-11-17T13:38:05.480Z,1.33
2022-11-17T13:40:34.617Z,1.40
2022-11-17T13:43:02.837Z,1.50
2022-11-17T13:45:29.703Z,1.43
2022-11-17T13:47:58.213Z,1.40
2022-11-17T13:50:29.264Z,1.40
2022-11-17T13:53:21.008Z,2.00
2022-11-17T13:55:48.287Z,1.20
2022-11-17T13:58:28.078Z,1.50
2022-11-17T14:01:00.154Z,1.40
2022-11-17T14:03:36.458Z,1.43
2022-11-17T14:06:09.263Z,1.80
2022-11-17T14:08:37.790Z,1.60
2022-11-17T14:11:10.928Z,1.53
2022-11-17T14:13:52.282Z,1.40
2022-11-17T14:16:41.555Z,1.63
2022-11-17T14:19:16.982Z,1.70
2022-11-17T14:22:30.575Z,1.80
2022-11-17T14:24:58.696Z,1.60
2022-11-17T14:27:49.177Z,1.57
2022-11-17T14:30:19.287Z,1.77
2022-11-17T14:32:46.162Z,1.50
2022-11-17T14:35:14.635Z,1.50
2022-11-17T14:37:42.268Z,1.47
2022-11-17T14:40:16.733Z,1.40
2022-11-17T14:42:43.999Z,1.53
2022-11-17T14:45:15.691Z,1.40
2022-11-17T14:47:43.141Z,1.47
2022-11-17T14:50:16.094Z,1.83
2022-11-17T14:52:44.123Z,1.73
2022-11-17T14:55:13.186Z,1.80
2022-11-17T14:57:41.000Z,1.60
2022-11-17T15:00:11.722Z,1.80
2022-11-17T15:02:41.772Z,1.50
2022-11-17T15:05:08.704Z,1.47
2022-11-17T15:07:35.541Z,1.80
2022-11-17T15:10:02.694Z,1.43
2022-11-17T15:12:29.877Z,1.80
2022-11-17T15:14:59.816Z,1.80
2022-11-17T15:17:27.841Z,1.87
2022-11-17T15:19:55.171Z,2.17
2022-11-17T15:22:22.291Z,2.10
2022-11-17T15:24:49.389Z,2.27
2022-11-17T15:27:16.112Z,2.27
2022-11-17T15:29:43.274Z,2.30
2022-11-17T15:32:10.622Z,1.83
2022-11-17T15:34:37.679Z,1.83
2022-11-17T15:37:05.340Z,1.80
2022-11-17T15:39:32.008Z,1.70
2022-11-17T15:41:58.660Z,1.67
2022-11-17T15:44:25.429Z,1.60
2022-11-17T15:46:52.087Z,1.83
2022-11-17T15:49:19.041Z,1.87
2022-11-17T15:51:46.385Z,2.00
2022-11-17T15:54:18.521Z,1.73
2022-11-17T15:56:47.441Z,1.87
2022-11-17T15:59:15.209Z,1.70
2022-11-17T16:01:42.708Z,1.77
2022-11-17T16:04:11.964Z,2.20
2022-11-17T16:06:41.142Z,1.97
2022-11-17T16:09:08.596Z,2.17
2022-11-17T16:11:36.411Z,1.97
2022-11-17T16:14:04.435Z,2.03
2022-11-17T16:16:34.263Z,2.00
2022-11-17T16:19:01.440Z,2.10
2022-11-17T16:21:28.263Z,1.93
2022-11-17T16:23:56.972Z,2.23
2022-11-17T16:26:25.915Z,2.00
2022-11-17T16:29:00.359Z,2.93
2022-11-17T16:31:29.447Z,1.57
2022-11-17T16:33:58.843Z,1.73
2022-11-17T16:36:31.366Z,2.00
2022-11-17T16:39:02.930Z,1.70
2022-11-17T16:41:34.818Z,2.23
2022-11-17T16:44:02.486Z,1.93
2022-11-17T16:46:31.219Z,1.80
2022-11-17T16:49:09.345Z,1.70
2022-11-17T16:51:36.069Z,2.00
2022-11-17T16:54:05.131Z,2.47
2022-11-17T16:56:33.448Z,2.43
2022-11-17T16:59:00.608Z,2.20
2022-11-17T17:01:32.522Z,1.90
2022-11-17T17:04:01.335Z,2.10
2022-11-17T17:06:28.937Z,2.00
2022-11-17T17:08:57.838Z,1.90
2022-11-17T17:11:25.240Z,2.20
2022-11-17T17:13:52.686Z,2.03
2022-11-17T17:16:20.592Z,2.60
2022-11-17T17:18:48.019Z,1.87
2022-11-17T17:21:19.463Z,2.27
2022-11-17T17:23:46.356Z,2.17
2022-11-17T17:26:14.255Z,2.47
2022-11-17T17:28:43.765Z,1.70
2022-11-17T17:31:15.373Z,2.00
2022-11-17T17:33:45.689Z,2.10
2022-11-17T17:36:15.190Z,1.93
2022-11-17T17:38:42.944Z,1.93
2022-11-17T17:41:17.942Z,2.00
2022-11-17T17:43:46.963Z,2.27
2022-11-17T17:46:16.052Z,1.90
2022-11-17T17:48:44.588Z,1.90
2022-11-17T17:51:14.592Z,8.90
2022-11-17T17:53:41.671Z,6.43
2022-11-17T17:56:13.862Z,11.03
2022-11-17T17:58:41.543Z,21.17
2022-11-17T18:01:15.892Z,8.60
2022-11-17T18:03:45.901Z,3.43
2022-11-17T18:06:13.756Z,2.63
2022-11-17T18:08:40.664Z,2.10
2022-11-17T18:11:12.250Z,2.20
2022-11-17T18:13:41.628Z,2.23
2022-11-17T18:16:11.359Z,2.87
2022-11-17T18:18:38.568Z,2.40
2022-11-17T18:21:08.295Z,2.70
2022-11-17T18:23:36.024Z,2.40
2022-11-17T18:26:15.565Z,2.67
2022-11-17T18:28:44.156Z,2.90
2022-11-17T18:31:12.431Z,2.73
2022-11-17T18:33:39.187Z,3.00
2022-11-17T18:36:09.606Z,3.50
2022-11-17T18:38:37.685Z,2.67
2022-11-17T18:41:06.116Z,2.77
2022-11-17T18:43:33.609Z,3.07
2022-11-17T18:46:15.019Z,2.87
2022-11-17T18:48:44.016Z,2.73
2022-11-17T18:51:21.506Z,2.67
2022-11-17T18:53:54.105Z,2.80
2022-11-17T18:56:24.059Z,2.93
2022-11-17T18:58:51.271Z,2.30
2022-11-17T19:01:20.196Z,3.00
2022-11-17T19:03:49.316Z,3.00
2022-11-17T19:06:17.458Z,3.17
2022-11-17T19:08:44.818Z,2.80
2022-11-17T19:11:12.272Z,2.90
2022-11-17T19:13:40.810Z,2.70
2022-11-17T19:16:09.317Z,2.80
2022-11-17T19:18:36.577Z,2.87
2022-11-17T19:21:25.506Z,2.87
2022-11-17T19:23:53.445Z,2.63
2022-11-17T19:26:20.578Z,2.73
2022-11-17T19:28:47.863Z,2.83
2022-11-17T19:31:17.304Z,2.47
2022-11-17T19:33:45.469Z,2.97
2022-11-17T19:36:18.559Z,2.43
2022-11-17T19:38:49.823Z,2.60
2022-11-17T19:41:22.392Z,4.83
2022-11-17T19:43:52.754Z,2.50
2022-11-17T19:46:19.842Z,5.30
2022-11-17T19:48:46.614Z,3.20
2022-11-17T19:51:13.880Z,3.03
2022-11-17T19:53:41.175Z,2.97
2022-11-17T19:56:08.132Z,8.03
2022-11-17T19:58:34.959Z,2.90
2022-11-17T20:01:12.629Z,3.00
2022-11-17T20:03:40.308Z,3.23
2022-11-17T20:06:08.407Z,2.70
2022-11-17T20:08:35.585Z,3.00
2022-11-17T20:11:06.430Z,2.90
2022-11-17T20:13:33.883Z,2.70
2022-11-17T20:16:04.278Z,3.10
2022-11-17T20:18:34.677Z,2.80
2022-11-17T20:21:05.360Z,3.20
2022-11-17T20:23:36.776Z,2.30
2022-11-17T20:26:15.366Z,2.43
2022-11-17T20:28:42.283Z,2.57
2022-11-17T20:31:11.655Z,3.07
2022-11-17T20:33:39.141Z,2.83
2022-11-17T20:36:07.715Z,3.00
2022-11-17T20:38:36.006Z,2.60
2022-11-17T20:41:03.758Z,2.30
2022-11-17T20:43:30.602Z,2.80
2022-11-17T20:45:58.292Z,2.20
2022-11-17T20:48:25.818Z,2.60
2022-11-17T20:50:57.572Z,3.10
2022-11-17T20:53:24.758Z,2.80
2022-11-17T20:55:51.966Z,3.10
2022-11-17T20:58:18.790Z,2.83
2022-11-17T21:00:46.357Z,2.70
2022-11-17T21:03:13.514Z,2.93
2022-11-17T21:05:40.665Z,3.13
2022-11-17T21:08:08.481Z,3.53
2022-11-17T21:10:35.586Z,3.07
2022-11-17T21:13:02.748Z,2.90
2022-11-17T21:15:29.872Z,2.97
2022-11-17T21:18:15.674Z,2.67
2022-11-17T21:20:42.773Z,2.90
2022-11-17T21:23:09.951Z,3.00
2022-11-17T21:25:37.104Z,2.80
2022-11-17T21:28:03.900Z,2.47
2022-11-17T21:30:30.808Z,2.50
2022-11-17T21:32:57.940Z,2.37
2022-11-17T21:35:25.112Z,2.60
2022-11-17T21:37:52.013Z,2.70
2022-11-17T21:40:19.079Z,2.67
2022-11-17T21:42:46.057Z,2.50
2022-11-17T21:45:13.297Z,2.83
2022-11-17T21:47:40.415Z,2.57
2022-11-17T21:50:07.890Z,2.90
2022-11-17T21:52:34.706Z,2.33
2022-11-17T21:55:01.586Z,2.50
2022-11-17T21:57:29.374Z,2.57
2022-11-17T21:59:56.129Z,2.80
2022-11-17T22:02:22.953Z,2.90
2022-11-17T22:04:50.103Z,2.53
2022-11-17T22:07:17.252Z,3.60
2022-11-17T22:09:44.046Z,3.47
2022-11-17T22:12:11.199Z,3.17
2022-11-17T22:14:38.323Z,3.23
2022-11-17T22:17:05.887Z,3.83
2022-11-17T22:19:33.714Z,3.10
2022-11-17T22:22:00.469Z,3.20
2022-11-17T22:24:27.915Z,2.93
2022-11-17T22:26:54.643Z,2.73
2022-11-17T22:29:22.566Z,3.43
2022-11-17T22:31:50.121Z,2.70
2022-11-17T22:34:17.989Z,2.50
2022-11-17T22:36:45.222Z,2.60
2022-11-17T22:39:12.336Z,2.60
2022-11-17T22:41:39.499Z,2.40
2022-11-17T22:44:06.722Z,2.57
2022-11-17T22:46:33.863Z,2.60
2022-11-17T22:49:00.554Z,2.50
2022-11-17T22:51:45.887Z,2.40
2022-11-17T22:54:12.962Z,2.60
2022-11-17T22:56:39.640Z,2.33
2022-11-17T22:59:06.692Z,2.17
2022-11-17T23:01:33.784Z,2.53
2022-11-17T23:04:01.195Z,2.60
2022-11-17T23:06:27.875Z,2.70
2022-11-17T23:08:55.977Z,2.80
2022-11-17T23:11:36.492Z,2.50
2022-11-17T23:14:05.436Z,2.60
2022-11-17T23:16:33.165Z,2.90
2022-11-17T23:18:59.909Z,2.87
2022-11-17T23:21:27.513Z,2.63
2022-11-17T23:23:57.361Z,2.40
2022-11-17T23:26:24.074Z,2.70
2022-11-17T23:28:51.135Z,3.57
2022-11-17T23:31:18.502Z,2.70
2022-11-17T23:33:47.118Z,2.80
2022-11-17T23:36:16.320Z,2.90
2022-11-17T23:38:42.986Z,2.63
2022-11-17T23:41:13.111Z,2.47
2022-11-17T23:43:40.188Z,2.50
2022-11-17T23:46:12.331Z,2.30
2022-11-17T23:48:39.425Z,2.40
2022-11-17T23:51:07.826Z,2.63
2022-11-17T23:53:34.644Z,2.90
2022-11-17T23:56:02.024Z,2.57
2022-11-17T23:58:29.074Z,2.50
